sensor_id;sensor_type;location;lat;lon;timestamp;temperature;humidity
78467;SHT31;67759;51.972;5.650;2023-08-30T00:02:09;21.3;49.1
78467;SHT31;67759;51.972;5.650;2023-08-30T00:04:41;21.2;48.9
78467;SHT31;67759;51.972;5.650;2023-08-30T00:07:11;21.1;48.9
78467;SHT31;67759;51.972;5.650;2023-08-30T00:09:41;21.0;49.2
78467;SHT31;67759;51.972;5.650;2023-08-30T00:12:10;20.9;49.2
78467;SHT31;67759;51.972;5.650;2023-08-30T00:14:42;20.8;49.5
78467;SHT31;67759;51.972;5.650;2023-08-30T00:17:12;20.8;50.2
78467;SHT31;67759;51.972;5.650;2023-08-30T00:19:47;20.9;50.0
78467;SHT31;67759;51.972;5.650;2023-08-30T00:22:23;21.0;49.0
78467;SHT31;67759;51.972;5.650;2023-08-30T00:25:09;21.1;49.2
78467;SHT31;67759;51.972;5.650;2023-08-30T00:27:39;21.3;48.3
78467;SHT31;67759;51.972;5.650;2023-08-30T00:30:16;21.3;48.2
78467;SHT31;67759;51.972;5.650;2023-08-30T00:32:46;21.4;48.5
78467;SHT31;67759;51.972;5.650;2023-08-30T00:35:17;21.5;48.1
78467;SHT31;67759;51.972;5.650;2023-08-30T00:37:47;21.5;47.9
78467;SHT31;67759;51.972;5.650;2023-08-30T00:40:17;21.6;47.3
78467;SHT31;67759;51.972;5.650;2023-08-30T00:42:47;21.7;47.2
78467;SHT31;67759;51.972;5.650;2023-08-30T00:45:19;21.7;46.8
78467;SHT31;67759;51.972;5.650;2023-08-30T00:47:52;21.8;47.4
78467;SHT31;67759;51.972;5.650;2023-08-30T00:50:24;21.8;47.0
78467;SHT31;67759;51.972;5.650;2023-08-30T00:52:55;21.7;45.9
78467;SHT31;67759;51.972;5.650;2023-08-30T00:55:25;21.5;46.6
78467;SHT31;67759;51.972;5.650;2023-08-30T00:57:55;21.3;47.7
78467;SHT31;67759;51.972;5.650;2023-08-30T01:00:25;21.1;47.7
78467;SHT31;67759;51.972;5.650;2023-08-30T01:02:55;20.9;48.3
78467;SHT31;67759;51.972;5.650;2023-08-30T01:05:25;20.7;49.0
78467;SHT31;67759;51.972;5.650;2023-08-30T01:07:56;20.5;48.4
78467;SHT31;67759;51.972;5.650;2023-08-30T01:10:37;20.3;49.6
78467;SHT31;67759;51.972;5.650;2023-08-30T01:13:10;20.2;49.7
78467;SHT31;67759;51.972;5.650;2023-08-30T01:15:45;20.1;51.1
78467;SHT31;67759;51.972;5.650;2023-08-30T01:18:18;20.0;50.9
78467;SHT31;67759;51.972;5.650;2023-08-30T01:20:50;19.9;51.9
78467;SHT31;67759;51.972;5.650;2023-08-30T01:23:40;19.9;51.5
78467;SHT31;67759;51.972;5.650;2023-08-30T01:26:10;19.8;52.2
78467;SHT31;67759;51.972;5.650;2023-08-30T01:28:44;19.8;52.1
78467;SHT31;67759;51.972;5.650;2023-08-30T01:31:16;19.8;52.2
78467;SHT31;67759;51.972;5.650;2023-08-30T01:33:46;19.8;51.5
78467;SHT31;67759;51.972;5.650;2023-08-30T01:36:20;19.8;51.0
78467;SHT31;67759;51.972;5.650;2023-08-30T01:38:52;19.8;51.6
78467;SHT31;67759;51.972;5.650;2023-08-30T01:41:22;19.8;51.9
78467;SHT31;67759;51.972;5.650;2023-08-30T01:43:53;19.8;51.3
78467;SHT31;67759;51.972;5.650;2023-08-30T01:46:27;19.8;52.2
78467;SHT31;67759;51.972;5.650;2023-08-30T01:48:58;19.9;51.5
78467;SHT31;67759;51.972;5.650;2023-08-30T01:51:28;19.9;51.5
78467;SHT31;67759;51.972;5.650;2023-08-30T01:53:57;19.9;51.2
78467;SHT31;67759;51.972;5.650;2023-08-30T01:56:27;19.9;50.9
78467;SHT31;67759;51.972;5.650;2023-08-30T01:58:57;19.9;50.5
78467;SHT31;67759;51.972;5.650;2023-08-30T02:01:26;19.9;50.7
78467;SHT31;67759;51.972;5.650;2023-08-30T02:03:59;19.9;50.6
78467;SHT31;67759;51.972;5.650;2023-08-30T02:06:33;19.9;50.7
78467;SHT31;67759;51.972;5.650;2023-08-30T02:09:14;19.8;50.4
78467;SHT31;67759;51.972;5.650;2023-08-30T02:11:51;19.8;50.4
78467;SHT31;67759;51.972;5.650;2023-08-30T02:14:23;19.8;51.1
78467;SHT31;67759;51.972;5.650;2023-08-30T02:16:55;19.7;51.0
78467;SHT31;67759;51.972;5.650;2023-08-30T02:19:25;19.7;51.3
78467;SHT31;67759;51.972;5.650;2023-08-30T02:21:55;19.7;51.0
78467;SHT31;67759;51.972;5.650;2023-08-30T02:24:25;19.7;51.4
78467;SHT31;67759;51.972;5.650;2023-08-30T02:26:55;19.7;51.5
78467;SHT31;67759;51.972;5.650;2023-08-30T02:29:24;19.7;51.4
78467;SHT31;67759;51.972;5.650;2023-08-30T02:31:54;19.7;51.6
78467;SHT31;67759;51.972;5.650;2023-08-30T02:34:26;19.7;51.6
78467;SHT31;67759;51.972;5.650;2023-08-30T02:36:56;19.7;51.0
78467;SHT31;67759;51.972;5.650;2023-08-30T02:39:26;19.7;52.0
78467;SHT31;67759;51.972;5.650;2023-08-30T02:41:56;19.8;51.6
78467;SHT31;67759;51.972;5.650;2023-08-30T02:44:25;19.8;51.4
78467;SHT31;67759;51.972;5.650;2023-08-30T02:46:55;19.8;51.3
78467;SHT31;67759;51.972;5.650;2023-08-30T02:49:25;19.9;50.6
78467;SHT31;67759;51.972;5.650;2023-08-30T02:51:54;19.9;50.5
78467;SHT31;67759;51.972;5.650;2023-08-30T02:54:25;20.0;50.1
78467;SHT31;67759;51.972;5.650;2023-08-30T02:56:56;20.0;50.1
78467;SHT31;67759;51.972;5.650;2023-08-30T02:59:26;20.1;50.3
78467;SHT31;67759;51.972;5.650;2023-08-30T03:01:55;20.2;50.3
78467;SHT31;67759;51.972;5.650;2023-08-30T03:04:25;20.4;49.6
78467;SHT31;67759;51.972;5.650;2023-08-30T03:06:54;20.5;48.9
78467;SHT31;67759;51.972;5.650;2023-08-30T03:09:24;20.5;48.7
78467;SHT31;67759;51.972;5.650;2023-08-30T03:11:54;20.6;48.8
78467;SHT31;67759;51.972;5.650;2023-08-30T03:14:23;20.6;48.8
78467;SHT31;67759;51.972;5.650;2023-08-30T03:16:53;20.6;48.9
78467;SHT31;67759;51.972;5.650;2023-08-30T03:19:23;20.6;49.0
78467;SHT31;67759;51.972;5.650;2023-08-30T03:21:52;20.5;48.4
78467;SHT31;67759;51.972;5.650;2023-08-30T03:24:22;20.5;48.7
78467;SHT31;67759;51.972;5.650;2023-08-30T03:26:51;20.5;48.7
78467;SHT31;67759;51.972;5.650;2023-08-30T03:29:21;20.4;48.8
78467;SHT31;67759;51.972;5.650;2023-08-30T03:31:51;20.3;48.7
78467;SHT31;67759;51.972;5.650;2023-08-30T03:34:20;20.3;48.9
78467;SHT31;67759;51.972;5.650;2023-08-30T03:36:50;20.2;49.0
78467;SHT31;67759;51.972;5.650;2023-08-30T03:39:22;20.2;48.8
78467;SHT31;67759;51.972;5.650;2023-08-30T03:41:52;20.2;49.3
78467;SHT31;67759;51.972;5.650;2023-08-30T03:44:22;20.1;49.0
78467;SHT31;67759;51.972;5.650;2023-08-30T03:46:54;20.1;49.3
78467;SHT31;67759;51.972;5.650;2023-08-30T03:49:24;20.0;49.1
78467;SHT31;67759;51.972;5.650;2023-08-30T03:51:54;19.9;49.2
78467;SHT31;67759;51.972;5.650;2023-08-30T03:54:26;19.8;49.3
78467;SHT31;67759;51.972;5.650;2023-08-30T03:56:58;19.7;49.6
78467;SHT31;67759;51.972;5.650;2023-08-30T03:59:27;19.5;49.7
78467;SHT31;67759;51.972;5.650;2023-08-30T04:01:57;19.4;49.8
78467;SHT31;67759;51.972;5.650;2023-08-30T04:04:27;19.3;50.2
78467;SHT31;67759;51.972;5.650;2023-08-30T04:06:57;19.2;50.2
78467;SHT31;67759;51.972;5.650;2023-08-30T04:09:27;19.0;50.7
78467;SHT31;67759;51.972;5.650;2023-08-30T04:11:57;18.9;50.7
78467;SHT31;67759;51.972;5.650;2023-08-30T04:14:28;18.8;51.2
78467;SHT31;67759;51.972;5.650;2023-08-30T04:16:57;18.8;51.1
78467;SHT31;67759;51.972;5.650;2023-08-30T04:19:27;18.7;51.3
78467;SHT31;67759;51.972;5.650;2023-08-30T04:21:57;18.7;51.2
78467;SHT31;67759;51.972;5.650;2023-08-30T04:24:26;18.7;51.2
78467;SHT31;67759;51.972;5.650;2023-08-30T04:26:56;18.7;51.5
78467;SHT31;67759;51.972;5.650;2023-08-30T04:29:25;18.7;51.6
78467;SHT31;67759;51.972;5.650;2023-08-30T04:31:55;18.6;51.4
78467;SHT31;67759;51.972;5.650;2023-08-30T04:34:25;18.6;51.8
78467;SHT31;67759;51.972;5.650;2023-08-30T04:36:56;18.6;52.0
78467;SHT31;67759;51.972;5.650;2023-08-30T04:39:26;18.5;52.0
78467;SHT31;67759;51.972;5.650;2023-08-30T04:41:56;18.5;52.3
78467;SHT31;67759;51.972;5.650;2023-08-30T04:44:26;18.5;51.9
78467;SHT31;67759;51.972;5.650;2023-08-30T04:46:55;18.5;52.0
78467;SHT31;67759;51.972;5.650;2023-08-30T04:49:26;18.5;51.8
78467;SHT31;67759;51.972;5.650;2023-08-30T04:51:56;18.5;51.9
78467;SHT31;67759;51.972;5.650;2023-08-30T04:54:26;18.5;52.0
78467;SHT31;67759;51.972;5.650;2023-08-30T04:56:56;18.5;52.4
78467;SHT31;67759;51.972;5.650;2023-08-30T04:59:27;18.5;52.4
78467;SHT31;67759;51.972;5.650;2023-08-30T05:01:57;18.5;53.1
78467;SHT31;67759;51.972;5.650;2023-08-30T05:04:26;18.6;53.0
78467;SHT31;67759;51.972;5.650;2023-08-30T05:06:56;18.6;52.6
78467;SHT31;67759;51.972;5.650;2023-08-30T05:09:25;18.6;53.0
78467;SHT31;67759;51.972;5.650;2023-08-30T05:11:55;18.7;52.9
78467;SHT31;67759;51.972;5.650;2023-08-30T05:14:25;18.7;52.8
78467;SHT31;67759;51.972;5.650;2023-08-30T05:16:55;18.8;52.4
78467;SHT31;67759;51.972;5.650;2023-08-30T05:19:25;18.9;52.0
78467;SHT31;67759;51.972;5.650;2023-08-30T05:21:54;19.0;51.5
78467;SHT31;67759;51.972;5.650;2023-08-30T05:24:24;19.0;51.9
78467;SHT31;67759;51.972;5.650;2023-08-30T05:26:56;19.0;52.1
78467;SHT31;67759;51.972;5.650;2023-08-30T05:29:26;19.1;52.1
78467;SHT31;67759;51.972;5.650;2023-08-30T05:31:55;19.1;52.4
78467;SHT31;67759;51.972;5.650;2023-08-30T05:34:25;19.1;52.4
78467;SHT31;67759;51.972;5.650;2023-08-30T05:36:57;19.2;52.8
78467;SHT31;67759;51.972;5.650;2023-08-30T05:39:27;19.2;52.4
78467;SHT31;67759;51.972;5.650;2023-08-30T05:41:57;19.2;52.6
78467;SHT31;67759;51.972;5.650;2023-08-30T05:44:26;19.3;52.4
78467;SHT31;67759;51.972;5.650;2023-08-30T05:46:56;19.3;51.9
78467;SHT31;67759;51.972;5.650;2023-08-30T05:49:26;19.4;52.4
78467;SHT31;67759;51.972;5.650;2023-08-30T05:51:56;19.4;52.4
78467;SHT31;67759;51.972;5.650;2023-08-30T05:54:25;19.5;52.4
78467;SHT31;67759;51.972;5.650;2023-08-30T05:56:59;19.5;52.8
78467;SHT31;67759;51.972;5.650;2023-08-30T05:59:29;19.6;52.2
78467;SHT31;67759;51.972;5.650;2023-08-30T06:01:58;19.7;52.1
78467;SHT31;67759;51.972;5.650;2023-08-30T06:04:28;19.7;52.0
78467;SHT31;67759;51.972;5.650;2023-08-30T06:06:57;19.8;52.2
78467;SHT31;67759;51.972;5.650;2023-08-30T06:09:27;19.8;52.2
78467;SHT31;67759;51.972;5.650;2023-08-30T06:11:57;19.8;52.4
78467;SHT31;67759;51.972;5.650;2023-08-30T06:14:26;19.9;52.4
78467;SHT31;67759;51.972;5.650;2023-08-30T06:16:57;19.9;52.4
78467;SHT31;67759;51.972;5.650;2023-08-30T06:19:26;19.9;52.5
78467;SHT31;67759;51.972;5.650;2023-08-30T06:21:56;19.9;52.1
78467;SHT31;67759;51.972;5.650;2023-08-30T06:24:25;20.0;52.3
78467;SHT31;67759;51.972;5.650;2023-08-30T06:26:55;20.0;52.3
78467;SHT31;67759;51.972;5.650;2023-08-30T06:29:25;20.0;52.2
78467;SHT31;67759;51.972;5.650;2023-08-30T06:31:54;20.0;52.1
78467;SHT31;67759;51.972;5.650;2023-08-30T06:34:25;20.0;52.3
78467;SHT31;67759;51.972;5.650;2023-08-30T06:36:55;20.1;52.2
78467;SHT31;67759;51.972;5.650;2023-08-30T06:39:25;20.1;51.8
78467;SHT31;67759;51.972;5.650;2023-08-30T06:41:54;20.1;52.4
78467;SHT31;67759;51.972;5.650;2023-08-30T06:44:24;20.2;52.2
78467;SHT31;67759;51.972;5.650;2023-08-30T06:46:53;20.2;52.2
78467;SHT31;67759;51.972;5.650;2023-08-30T06:49:23;20.3;52.9
78467;SHT31;67759;51.972;5.650;2023-08-30T06:51:53;20.3;53.2
78467;SHT31;67759;51.972;5.650;2023-08-30T06:54:23;20.3;53.1
78467;SHT31;67759;51.972;5.650;2023-08-30T06:57:02;20.4;53.1
78467;SHT31;67759;51.972;5.650;2023-08-30T06:59:34;20.4;53.8
78467;SHT31;67759;51.972;5.650;2023-08-30T07:02:04;20.3;54.0
78467;SHT31;67759;51.972;5.650;2023-08-30T07:04:33;20.3;54.2
78467;SHT31;67759;51.972;5.650;2023-08-30T07:07:04;20.2;54.9
78467;SHT31;67759;51.972;5.650;2023-08-30T07:09:33;20.1;55.4
78467;SHT31;67759;51.972;5.650;2023-08-30T07:12:03;20.0;56.2
78467;SHT31;67759;51.972;5.650;2023-08-30T07:14:33;19.9;56.8
78467;SHT31;67759;51.972;5.650;2023-08-30T07:17:03;19.8;57.3
78467;SHT31;67759;51.972;5.650;2023-08-30T07:19:32;19.7;57.5
78467;SHT31;67759;51.972;5.650;2023-08-30T07:22:02;19.6;58.2
78467;SHT31;67759;51.972;5.650;2023-08-30T07:24:32;19.6;58.6
78467;SHT31;67759;51.972;5.650;2023-08-30T07:27:02;19.6;59.2
78467;SHT31;67759;51.972;5.650;2023-08-30T07:29:44;19.6;59.2
78467;SHT31;67759;51.972;5.650;2023-08-30T07:32:14;19.7;59.0
78467;SHT31;67759;51.972;5.650;2023-08-30T07:34:45;19.8;58.4
78467;SHT31;67759;51.972;5.650;2023-08-30T07:37:20;19.7;58.3
78467;SHT31;67759;51.972;5.650;2023-08-30T07:39:51;19.6;58.6
78467;SHT31;67759;51.972;5.650;2023-08-30T07:42:20;19.4;59.0
78467;SHT31;67759;51.972;5.650;2023-08-30T07:44:50;19.3;59.7
78467;SHT31;67759;51.972;5.650;2023-08-30T07:47:20;19.1;60.2
78467;SHT31;67759;51.972;5.650;2023-08-30T07:49:49;19.0;60.9
78467;SHT31;67759;51.972;5.650;2023-08-30T07:52:19;18.9;61.3
78467;SHT31;67759;51.972;5.650;2023-08-30T07:54:49;18.8;61.9
78467;SHT31;67759;51.972;5.650;2023-08-30T07:57:19;18.7;62.0
78467;SHT31;67759;51.972;5.650;2023-08-30T07:59:48;18.6;62.3
78467;SHT31;67759;51.972;5.650;2023-08-30T08:02:18;18.5;62.5
78467;SHT31;67759;51.972;5.650;2023-08-30T08:04:47;18.4;63.0
78467;SHT31;67759;51.972;5.650;2023-08-30T08:07:19;18.3;63.6
78467;SHT31;67759;51.972;5.650;2023-08-30T08:09:48;18.2;64.1
78467;SHT31;67759;51.972;5.650;2023-08-30T08:12:18;18.1;64.4
78467;SHT31;67759;51.972;5.650;2023-08-30T08:14:47;18.1;64.6
78467;SHT31;67759;51.972;5.650;2023-08-30T08:17:19;18.0;65.0
78467;SHT31;67759;51.972;5.650;2023-08-30T08:19:49;18.0;66.1
78467;SHT31;67759;51.972;5.650;2023-08-30T08:22:20;18.1;66.2
78467;SHT31;67759;51.972;5.650;2023-08-30T08:24:53;18.4;65.3
78467;SHT31;67759;51.972;5.650;2023-08-30T08:27:24;18.6;64.1
78467;SHT31;67759;51.972;5.650;2023-08-30T08:29:57;18.7;64.0
78467;SHT31;67759;51.972;5.650;2023-08-30T08:32:26;18.7;64.3
78467;SHT31;67759;51.972;5.650;2023-08-30T08:34:56;18.7;63.9
78467;SHT31;67759;51.972;5.650;2023-08-30T08:37:25;18.7;63.8
78467;SHT31;67759;51.972;5.650;2023-08-30T08:39:55;18.7;64.2
78467;SHT31;67759;51.972;5.650;2023-08-30T08:42:27;18.7;64.4
78467;SHT31;67759;51.972;5.650;2023-08-30T08:44:58;18.8;64.6
78467;SHT31;67759;51.972;5.650;2023-08-30T08:47:30;18.8;63.7
78467;SHT31;67759;51.972;5.650;2023-08-30T08:50:02;18.9;64.0
78467;SHT31;67759;51.972;5.650;2023-08-30T08:52:33;18.9;63.7
78467;SHT31;67759;51.972;5.650;2023-08-30T08:55:05;18.9;64.0
78467;SHT31;67759;51.972;5.650;2023-08-30T08:57:38;18.9;63.9
78467;SHT31;67759;51.972;5.650;2023-08-30T09:00:08;19.0;63.7
78467;SHT31;67759;51.972;5.650;2023-08-30T09:02:41;19.0;63.3
78467;SHT31;67759;51.972;5.650;2023-08-30T09:05:12;19.0;63.7
78467;SHT31;67759;51.972;5.650;2023-08-30T09:07:43;19.0;63.6
78467;SHT31;67759;51.972;5.650;2023-08-30T09:10:13;19.0;63.6
78467;SHT31;67759;51.972;5.650;2023-08-30T09:12:43;19.0;63.9
78467;SHT31;67759;51.972;5.650;2023-08-30T09:15:12;19.0;64.5
78467;SHT31;67759;51.972;5.650;2023-08-30T09:17:42;19.2;63.5
78467;SHT31;67759;51.972;5.650;2023-08-30T09:20:14;19.2;63.2
78467;SHT31;67759;51.972;5.650;2023-08-30T09:22:46;19.2;63.7
78467;SHT31;67759;51.972;5.650;2023-08-30T09:25:25;19.3;63.8
78467;SHT31;67759;51.972;5.650;2023-08-30T09:27:59;19.4;63.4
78467;SHT31;67759;51.972;5.650;2023-08-30T09:30:28;19.5;63.3
78467;SHT31;67759;51.972;5.650;2023-08-30T09:33:03;19.6;62.7
78467;SHT31;67759;51.972;5.650;2023-08-30T09:35:45;19.6;62.7
78467;SHT31;67759;51.972;5.650;2023-08-30T09:38:19;19.7;63.1
78467;SHT31;67759;51.972;5.650;2023-08-30T09:40:48;19.7;63.0
78467;SHT31;67759;51.972;5.650;2023-08-30T09:43:20;19.7;62.8
78467;SHT31;67759;51.972;5.650;2023-08-30T09:45:52;19.8;62.8
78467;SHT31;67759;51.972;5.650;2023-08-30T09:48:29;19.8;63.0
78467;SHT31;67759;51.972;5.650;2023-08-30T09:51:03;19.9;63.2
78467;SHT31;67759;51.972;5.650;2023-08-30T09:53:42;19.9;63.7
78467;SHT31;67759;51.972;5.650;2023-08-30T09:56:14;20.0;63.8
78467;SHT31;67759;51.972;5.650;2023-08-30T09:58:45;20.1;63.4
78467;SHT31;67759;51.972;5.650;2023-08-30T10:01:17;20.2;63.0
78467;SHT31;67759;51.972;5.650;2023-08-30T10:03:47;20.3;63.5
78467;SHT31;67759;51.972;5.650;2023-08-30T10:06:18;20.5;63.1
78467;SHT31;67759;51.972;5.650;2023-08-30T10:08:49;20.6;62.7
78467;SHT31;67759;51.972;5.650;2023-08-30T10:11:21;20.7;62.8
78467;SHT31;67759;51.972;5.650;2023-08-30T10:13:51;20.9;62.8
78467;SHT31;67759;51.972;5.650;2023-08-30T10:16:26;21.0;63.2
78467;SHT31;67759;51.972;5.650;2023-08-30T10:19:02;21.2;62.4
78467;SHT31;67759;51.972;5.650;2023-08-30T10:21:35;21.3;61.3
78467;SHT31;67759;51.972;5.650;2023-08-30T10:24:08;21.4;60.4
78467;SHT31;67759;51.972;5.650;2023-08-30T10:26:40;21.5;61.2
78467;SHT31;67759;51.972;5.650;2023-08-30T10:29:12;21.6;62.1
78467;SHT31;67759;51.972;5.650;2023-08-30T10:31:42;21.8;61.5
78467;SHT31;67759;51.972;5.650;2023-08-30T10:34:16;22.1;61.2
78467;SHT31;67759;51.972;5.650;2023-08-30T10:37:00;22.4;60.3
78467;SHT31;67759;51.972;5.650;2023-08-30T10:39:36;22.6;58.9
78467;SHT31;67759;51.972;5.650;2023-08-30T10:42:10;22.8;57.4
78467;SHT31;67759;51.972;5.650;2023-08-30T10:44:52;22.9;57.0
78467;SHT31;67759;51.972;5.650;2023-08-30T10:47:22;22.9;57.3
78467;SHT31;67759;51.972;5.650;2023-08-30T10:49:56;23.0;56.5
78467;SHT31;67759;51.972;5.650;2023-08-30T10:52:27;23.0;55.9
78467;SHT31;67759;51.972;5.650;2023-08-30T10:55:06;23.0;54.7
78467;SHT31;67759;51.972;5.650;2023-08-30T10:57:38;23.0;54.9
78467;SHT31;67759;51.972;5.650;2023-08-30T11:00:20;23.0;54.7
78467;SHT31;67759;51.972;5.650;2023-08-30T11:02:51;23.0;54.8
78467;SHT31;67759;51.972;5.650;2023-08-30T11:05:23;23.0;54.7
78467;SHT31;67759;51.972;5.650;2023-08-30T11:07:53;23.1;55.1
78467;SHT31;67759;51.972;5.650;2023-08-30T11:10:23;23.1;53.8
78467;SHT31;67759;51.972;5.650;2023-08-30T11:12:53;23.1;52.6
78467;SHT31;67759;51.972;5.650;2023-08-30T11:15:26;23.2;52.2
78467;SHT31;67759;51.972;5.650;2023-08-30T11:18:04;23.2;52.1
78467;SHT31;67759;51.972;5.650;2023-08-30T11:20:33;23.2;52.3
78467;SHT31;67759;51.972;5.650;2023-08-30T11:23:03;23.4;52.5
78467;SHT31;67759;51.972;5.650;2023-08-30T11:25:35;23.5;51.2
78467;SHT31;67759;51.972;5.650;2023-08-30T11:28:06;23.6;50.2
78467;SHT31;67759;51.972;5.650;2023-08-30T11:30:40;23.6;50.1
78467;SHT31;67759;51.972;5.650;2023-08-30T11:33:10;23.7;50.2
78467;SHT31;67759;51.972;5.650;2023-08-30T11:35:40;23.8;50.8
78467;SHT31;67759;51.972;5.650;2023-08-30T11:38:10;23.8;49.5
78467;SHT31;67759;51.972;5.650;2023-08-30T11:40:40;23.9;48.9
78467;SHT31;67759;51.972;5.650;2023-08-30T11:43:09;23.9;49.0
78467;SHT31;67759;51.972;5.650;2023-08-30T11:45:39;24.0;49.0
78467;SHT31;67759;51.972;5.650;2023-08-30T11:48:11;24.0;49.2
78467;SHT31;67759;51.972;5.650;2023-08-30T11:50:43;24.0;50.3
78467;SHT31;67759;51.972;5.650;2023-08-30T11:53:16;24.2;49.0
78467;SHT31;67759;51.972;5.650;2023-08-30T11:55:48;24.4;48.3
78467;SHT31;67759;51.972;5.650;2023-08-30T11:58:19;24.5;47.2
78467;SHT31;67759;51.972;5.650;2023-08-30T12:00:51;24.6;46.1
78467;SHT31;67759;51.972;5.650;2023-08-30T12:03:21;24.7;45.2
78467;SHT31;67759;51.972;5.650;2023-08-30T12:05:51;24.7;44.1
78467;SHT31;67759;51.972;5.650;2023-08-30T12:08:24;24.7;45.3
78467;SHT31;67759;51.972;5.650;2023-08-30T12:10:55;24.7;45.5
78467;SHT31;67759;51.972;5.650;2023-08-30T12:13:25;24.7;45.4
78467;SHT31;67759;51.972;5.650;2023-08-30T12:15:56;24.7;45.6
78467;SHT31;67759;51.972;5.650;2023-08-30T12:18:28;24.7;45.1
78467;SHT31;67759;51.972;5.650;2023-08-30T12:21:00;24.7;45.8
78467;SHT31;67759;51.972;5.650;2023-08-30T12:23:31;24.7;45.4
78467;SHT31;67759;51.972;5.650;2023-08-30T12:26:03;24.8;44.6
78467;SHT31;67759;51.972;5.650;2023-08-30T12:28:34;24.8;45.7
78467;SHT31;67759;51.972;5.650;2023-08-30T12:31:05;24.8;46.0
78467;SHT31;67759;51.972;5.650;2023-08-30T12:33:34;24.8;45.6
78467;SHT31;67759;51.972;5.650;2023-08-30T12:36:05;24.8;45.3
78467;SHT31;67759;51.972;5.650;2023-08-30T12:38:35;24.8;45.5
78467;SHT31;67759;51.972;5.650;2023-08-30T12:41:05;24.8;45.4
78467;SHT31;67759;51.972;5.650;2023-08-30T12:43:34;24.8;45.3
78467;SHT31;67759;51.972;5.650;2023-08-30T12:46:04;24.9;44.9
78467;SHT31;67759;51.972;5.650;2023-08-30T12:48:34;24.9;45.2
78467;SHT31;67759;51.972;5.650;2023-08-30T12:51:04;24.8;45.8
78467;SHT31;67759;51.972;5.650;2023-08-30T12:53:34;24.8;45.7
78467;SHT31;67759;51.972;5.650;2023-08-30T12:56:04;24.8;46.1
78467;SHT31;67759;51.972;5.650;2023-08-30T12:58:33;24.9;45.6
78467;SHT31;67759;51.972;5.650;2023-08-30T13:01:03;24.9;46.2
78467;SHT31;67759;51.972;5.650;2023-08-30T13:03:32;25.0;44.7
78467;SHT31;67759;51.972;5.650;2023-08-30T13:06:02;25.1;45.9
78467;SHT31;67759;51.972;5.650;2023-08-30T13:08:35;25.3;45.3
78467;SHT31;67759;51.972;5.650;2023-08-30T13:11:07;25.5;45.9
78467;SHT31;67759;51.972;5.650;2023-08-30T13:13:36;26.0;44.2
78467;SHT31;67759;51.972;5.650;2023-08-30T13:16:06;26.3;41.4
78467;SHT31;67759;51.972;5.650;2023-08-30T13:18:36;26.4;40.9
78467;SHT31;67759;51.972;5.650;2023-08-30T13:21:06;26.6;40.6
78467;SHT31;67759;51.972;5.650;2023-08-30T13:23:36;26.6;40.4
78467;SHT31;67759;51.972;5.650;2023-08-30T13:26:06;26.7;39.6
78467;SHT31;67759;51.972;5.650;2023-08-30T13:28:38;26.7;39.7
78467;SHT31;67759;51.972;5.650;2023-08-30T13:31:08;26.6;39.8
78467;SHT31;67759;51.972;5.650;2023-08-30T13:33:38;26.6;39.3
78467;SHT31;67759;51.972;5.650;2023-08-30T13:36:08;26.5;39.6
78467;SHT31;67759;51.972;5.650;2023-08-30T13:38:40;26.4;37.7
78467;SHT31;67759;51.972;5.650;2023-08-30T13:41:11;26.4;39.6
78467;SHT31;67759;51.972;5.650;2023-08-30T13:43:41;26.3;38.7
78467;SHT31;67759;51.972;5.650;2023-08-30T13:46:10;26.3;38.6
78467;SHT31;67759;51.972;5.650;2023-08-30T13:48:40;26.3;37.9
78467;SHT31;67759;51.972;5.650;2023-08-30T13:51:10;26.2;38.2
78467;SHT31;67759;51.972;5.650;2023-08-30T13:53:41;26.2;38.0
78467;SHT31;67759;51.972;5.650;2023-08-30T13:56:11;26.2;38.8
78467;SHT31;67759;51.972;5.650;2023-08-30T13:58:41;26.2;38.5
78467;SHT31;67759;51.972;5.650;2023-08-30T14:01:11;26.1;38.1
78467;SHT31;67759;51.972;5.650;2023-08-30T14:03:40;26.1;38.7
78467;SHT31;67759;51.972;5.650;2023-08-30T14:06:10;26.1;39.0
78467;SHT31;67759;51.972;5.650;2023-08-30T14:08:43;26.1;38.5
78467;SHT31;67759;51.972;5.650;2023-08-30T14:11:12;26.1;39.6
78467;SHT31;67759;51.972;5.650;2023-08-30T14:13:42;26.1;39.5
78467;SHT31;67759;51.972;5.650;2023-08-30T14:16:12;26.2;39.9
78467;SHT31;67759;51.972;5.650;2023-08-30T14:18:43;26.2;38.9
78467;SHT31;67759;51.972;5.650;2023-08-30T14:21:13;26.3;38.7
78467;SHT31;67759;51.972;5.650;2023-08-30T14:23:43;26.3;38.7
78467;SHT31;67759;51.972;5.650;2023-08-30T14:26:13;26.3;38.6
78467;SHT31;67759;51.972;5.650;2023-08-30T14:28:42;26.4;38.9
78467;SHT31;67759;51.972;5.650;2023-08-30T14:31:12;26.4;38.7
78467;SHT31;67759;51.972;5.650;2023-08-30T14:33:44;26.4;39.4
78467;SHT31;67759;51.972;5.650;2023-08-30T14:36:15;26.4;38.9
78467;SHT31;67759;51.972;5.650;2023-08-30T14:38:46;26.5;38.2
78467;SHT31;67759;51.972;5.650;2023-08-30T14:41:16;26.5;37.6
78467;SHT31;67759;51.972;5.650;2023-08-30T14:43:46;26.4;38.2
78467;SHT31;67759;51.972;5.650;2023-08-30T14:46:16;26.4;40.0
78467;SHT31;67759;51.972;5.650;2023-08-30T14:48:47;26.3;40.8
78467;SHT31;67759;51.972;5.650;2023-08-30T14:51:17;26.3;40.8
78467;SHT31;67759;51.972;5.650;2023-08-30T14:53:47;26.4;38.8
78467;SHT31;67759;51.972;5.650;2023-08-30T14:56:16;26.6;38.2
78467;SHT31;67759;51.972;5.650;2023-08-30T14:58:47;26.7;38.1
78467;SHT31;67759;51.972;5.650;2023-08-30T15:01:18;26.9;37.6
78467;SHT31;67759;51.972;5.650;2023-08-30T15:03:50;27.0;37.6
78467;SHT31;67759;51.972;5.650;2023-08-30T15:06:21;27.1;38.0
78467;SHT31;67759;51.972;5.650;2023-08-30T15:08:51;27.2;38.6
78467;SHT31;67759;51.972;5.650;2023-08-30T15:11:20;27.3;38.0
78467;SHT31;67759;51.972;5.650;2023-08-30T15:13:50;27.5;38.4
78467;SHT31;67759;51.972;5.650;2023-08-30T15:16:20;27.7;36.8
78467;SHT31;67759;51.972;5.650;2023-08-30T15:18:50;27.9;37.0
78467;SHT31;67759;51.972;5.650;2023-08-30T15:21:20;28.0;35.8
78467;SHT31;67759;51.972;5.650;2023-08-30T15:23:49;28.1;35.8
78467;SHT31;67759;51.972;5.650;2023-08-30T15:26:19;28.0;35.9
78467;SHT31;67759;51.972;5.650;2023-08-30T15:28:50;27.8;36.3
78467;SHT31;67759;51.972;5.650;2023-08-30T15:31:20;27.6;37.0
78467;SHT31;67759;51.972;5.650;2023-08-30T15:33:49;27.3;37.2
78467;SHT31;67759;51.972;5.650;2023-08-30T15:36:19;27.1;38.4
78467;SHT31;67759;51.972;5.650;2023-08-30T15:38:48;26.9;39.8
78467;SHT31;67759;51.972;5.650;2023-08-30T15:41:18;26.5;42.3
78467;SHT31;67759;51.972;5.650;2023-08-30T15:43:48;25.5;46.9
78467;SHT31;67759;51.972;5.650;2023-08-30T15:46:18;24.4;51.0
78467;SHT31;67759;51.972;5.650;2023-08-30T15:48:48;23.9;52.6
78467;SHT31;67759;51.972;5.650;2023-08-30T15:51:19;23.7;50.1
78467;SHT31;67759;51.972;5.650;2023-08-30T15:53:48;23.6;50.9
78467;SHT31;67759;51.972;5.650;2023-08-30T15:56:21;23.5;50.7
78467;SHT31;67759;51.972;5.650;2023-08-30T15:58:51;23.5;50.8
78467;SHT31;67759;51.972;5.650;2023-08-30T16:01:22;23.4;51.0
78467;SHT31;67759;51.972;5.650;2023-08-30T16:03:52;23.4;50.3
78467;SHT31;67759;51.972;5.650;2023-08-30T16:06:24;23.4;50.0
78467;SHT31;67759;51.972;5.650;2023-08-30T16:08:54;23.4;50.7
78467;SHT31;67759;51.972;5.650;2023-08-30T16:11:23;23.4;50.6
78467;SHT31;67759;51.972;5.650;2023-08-30T16:13:53;23.4;51.5
78467;SHT31;67759;51.972;5.650;2023-08-30T16:16:23;23.6;51.1
78467;SHT31;67759;51.972;5.650;2023-08-30T16:18:54;23.8;50.6
78467;SHT31;67759;51.972;5.650;2023-08-30T16:21:23;24.1;49.1
78467;SHT31;67759;51.972;5.650;2023-08-30T16:23:52;24.2;49.4
78467;SHT31;67759;51.972;5.650;2023-08-30T16:26:22;24.4;47.5